Time;durP1;ratioP1;P1;durP2;ratioP2;P2;SDS_P1;SDS_P2;PMS_P1;PMS_P2;Temp;Humidity;BMP_temperature;BMP_pressure;BME280_temperature;BME280_humidity;BME280_pressure;Samples;Min_cycle;Max_cycle;Signal;HPM_P1;HPM_P2
2022/05/02 00:01:55;;;;;;;36.43;30.67;;;;;;;;;;4963823;28;20212;-43
2022/05/02 00:04:21;;;;;;;34.40;28.80;;;;;;;;;;4965091;28;21080;-43
2022/05/02 00:06:47;;;;;;;38.80;32.97;;;;;;;;;;4963982;28;20966;-43
2022/05/02 00:09:13;;;;;;;43.23;36.60;;;;;;;;;;4959797;28;21249;-43
2022/05/02 00:11:39;;;;;;;43.40;35.57;;;;;;;;;;4962688;28;20173;-42
2022/05/02 00:14:05;;;;;;;39.00;34.00;;;;;;;;;;4966349;28;21207;-42
2022/05/02 00:16:31;;;;;;;53.03;42.87;;;;;;;;;;4960231;28;20170;-42
2022/05/02 00:18:57;;;;;;;59.33;46.53;;;;;;;;;;4960728;28;20512;-42
2022/05/02 00:21:24;;;;;;;64.50;48.37;;;;;;;;;;4962105;28;20625;-43
2022/05/02 00:23:50;;;;;;;53.77;43.37;;;;;;;;;;4959513;28;20236;-43
2022/05/02 00:26:16;;;;;;;59.40;46.10;;;;;;;;;;4961424;28;20178;-42
2022/05/02 00:28:42;;;;;;;58.77;44.40;;;;;;;;;;4967212;28;20193;-42
2022/05/02 00:31:08;;;;;;;59.90;47.63;;;;;;;;;;4963017;28;20224;-42
2022/05/02 00:33:34;;;;;;;58.13;46.70;;;;;;;;;;4959744;28;20170;-43
2022/05/02 00:36:00;;;;;;;52.20;41.73;;;;;;;;;;4964050;28;20189;-43
2022/05/02 00:38:27;;;;;;;48.57;40.00;;;;;;;;;;4963662;28;20195;-43
2022/05/02 00:40:53;;;;;;;54.53;44.20;;;;;;;;;;4964318;28;21100;-42
2022/05/02 00:43:19;;;;;;;57.97;45.83;;;;;;;;;;4964411;28;20170;-43
2022/05/02 00:45:45;;;;;;;52.50;41.10;;;;;;;;;;4963811;28;20174;-43
2022/05/02 00:48:11;;;;;;;50.33;40.60;;;;;;;;;;4963047;28;20182;-41
2022/05/02 00:50:40;;;;;;;52.73;42.23;;;;;;;;;;4996481;28;21017;-42
2022/05/02 00:53:07;;;;;;;56.93;45.40;;;;;;;;;;4960014;28;20168;-42
2022/05/02 00:55:33;;;;;;;50.57;41.10;;;;;;;;;;4961858;28;21016;-43
2022/05/02 00:58:00;;;;;;;55.23;43.77;;;;;;;;;;4963644;28;21213;-42
2022/05/02 01:00:28;;;;;;;55.27;43.80;;;;;;;;;;4966202;28;20198;-42
2022/05/02 01:02:54;;;;;;;61.10;46.97;;;;;;;;;;4960418;28;20992;-43
2022/05/02 01:05:20;;;;;;;50.73;41.23;;;;;;;;;;4965242;28;20181;-42
2022/05/02 01:07:46;;;;;;;54.10;43.83;;;;;;;;;;4963766;28;22193;-43
2022/05/02 01:10:17;;;;;;;50.43;40.63;;;;;;;;;;4964251;28;21051;-42
2022/05/02 01:12:43;;;;;;;55.70;43.30;;;;;;;;;;4962215;28;20174;-42
2022/05/02 01:15:09;;;;;;;49.50;40.73;;;;;;;;;;4963134;28;21070;-43
2022/05/02 01:17:37;;;;;;;49.77;39.20;;;;;;;;;;4960815;28;20244;-43
2022/05/02 01:20:07;;;;;;;48.10;39.70;;;;;;;;;;4961199;28;20282;-42
2022/05/02 01:22:33;;;;;;;49.33;40.60;;;;;;;;;;4961701;28;20205;-41
2022/05/02 01:24:59;;;;;;;49.77;39.57;;;;;;;;;;4961602;28;21005;-42
2022/05/02 01:27:25;;;;;;;52.40;42.23;;;;;;;;;;4959014;28;20184;-40
2022/05/02 01:29:51;;;;;;;50.80;40.73;;;;;;;;;;4959856;28;20201;-41
2022/05/02 01:32:18;;;;;;;46.73;38.60;;;;;;;;;;4962172;28;20178;-41
2022/05/02 01:34:44;;;;;;;51.00;41.07;;;;;;;;;;4963946;28;20189;-41
2022/05/02 01:37:11;;;;;;;46.80;37.63;;;;;;;;;;4960551;28;20185;-41
2022/05/02 01:39:38;;;;;;;45.53;38.37;;;;;;;;;;4961896;28;20327;-41
2022/05/02 01:42:05;;;;;;;56.60;43.40;;;;;;;;;;4963738;28;20181;-42
2022/05/02 01:44:31;;;;;;;56.70;44.87;;;;;;;;;;4961432;28;20209;-42
2022/05/02 01:46:58;;;;;;;74.70;56.30;;;;;;;;;;4962319;28;20178;-42
2022/05/02 01:49:24;;;;;;;71.67;52.50;;;;;;;;;;4958535;28;20212;-42
2022/05/02 01:51:50;;;;;;;81.47;59.77;;;;;;;;;;4963975;28;20181;-42
2022/05/02 01:54:17;;;;;;;87.07;61.70;;;;;;;;;;4962683;28;20769;-40
2022/05/02 01:56:43;;;;;;;89.73;66.83;;;;;;;;;;4962914;28;20219;-41
2022/05/02 01:59:09;;;;;;;93.47;66.23;;;;;;;;;;4962297;28;20361;-42
2022/05/02 02:01:35;;;;;;;75.73;57.43;;;;;;;;;;4962159;28;20189;-41
2022/05/02 02:05:48;;;;;;;91.83;65.90;;;;;;;;;;4960069;28;20185;-41
2022/05/02 02:06:47;;;;;;;80.60;59.70;;;;;;;;;;4960241;28;20200;-40
2022/05/02 02:09:14;;;;;;;79.93;57.87;;;;;;;;;;4958565;28;20201;-42
2022/05/02 02:11:40;;;;;;;76.30;56.13;;;;;;;;;;4962972;28;20173;-40
2022/05/02 02:14:06;;;;;;;75.27;55.87;;;;;;;;;;4963194;28;20182;-41
2022/05/02 02:16:32;;;;;;;71.40;52.50;;;;;;;;;;4960873;28;20178;-42
2022/05/02 02:18:59;;;;;;;71.73;53.30;;;;;;;;;;4959887;28;20211;-42
2022/05/02 02:21:25;;;;;;;61.83;46.50;;;;;;;;;;4957829;28;20177;-44
2022/05/02 02:23:51;;;;;;;63.93;49.23;;;;;;;;;;4960904;28;20259;-42
2022/05/02 02:26:17;;;;;;;63.13;49.57;;;;;;;;;;4961152;28;20173;-42
2022/05/02 02:28:43;;;;;;;63.17;48.07;;;;;;;;;;4960750;28;20225;-43
2022/05/02 02:31:09;;;;;;;58.00;45.90;;;;;;;;;;4962204;28;20181;-42
2022/05/02 02:33:37;;;;;;;64.50;49.10;;;;;;;;;;4963079;28;20174;-42
2022/05/02 02:36:03;;;;;;;70.60;53.80;;;;;;;;;;4961715;28;20205;-41
2022/05/02 02:38:29;;;;;;;64.57;50.37;;;;;;;;;;4961238;28;21150;-41
2022/05/02 02:40:56;;;;;;;67.60;51.50;;;;;;;;;;4959548;28;20208;-42
2022/05/02 02:43:23;;;;;;;63.30;49.97;;;;;;;;;;4959164;28;20191;-42
2022/05/02 02:45:49;;;;;;;65.97;51.07;;;;;;;;;;4960659;28;21073;-40
2022/05/02 02:48:15;;;;;;;70.07;53.50;;;;;;;;;;4961149;28;20182;-42
2022/05/02 02:50:41;;;;;;;78.37;57.80;;;;;;;;;;4960294;28;20173;-42
2022/05/02 02:53:07;;;;;;;82.83;60.07;;;;;;;;;;4959065;28;20188;-43
2022/05/02 02:55:34;;;;;;;74.57;54.67;;;;;;;;;;4959875;28;20177;-42
2022/05/02 02:58:00;;;;;;;86.57;60.47;;;;;;;;;;4959014;28;20178;-43
2022/05/02 03:00:26;;;;;;;90.27;62.07;;;;;;;;;;4959393;28;20185;-42
2022/05/02 03:02:52;;;;;;;84.17;60.80;;;;;;;;;;4959798;28;20180;-42
2022/05/02 03:08:04;;;;;;;113.83;76.87;;;;;;;;;;4963780;28;21117;-43
2022/05/02 03:10:30;;;;;;;98.83;70.50;;;;;;;;;;4958216;28;20201;-43
2022/05/02 03:12:56;;;;;;;99.97;72.13;;;;;;;;;;4963506;28;20233;-42
2022/05/02 03:15:22;;;;;;;89.40;64.93;;;;;;;;;;4962825;28;21072;-42
2022/05/02 03:17:49;;;;;;;93.60;66.60;;;;;;;;;;4962665;28;20170;-42
2022/05/02 03:20:15;;;;;;;92.33;66.83;;;;;;;;;;4961247;28;20181;-42
2022/05/02 03:22:41;;;;;;;100.30;70.83;;;;;;;;;;4968403;28;20347;-41
2022/05/02 03:25:07;;;;;;;86.33;62.37;;;;;;;;;;4963102;28;20181;-42
2022/05/02 03:27:33;;;;;;;89.90;66.20;;;;;;;;;;4959049;28;20181;-42
2022/05/02 03:30:00;;;;;;;82.87;61.17;;;;;;;;;;4965672;28;20208;-42
2022/05/02 03:32:26;;;;;;;89.37;61.67;;;;;;;;;;4963108;28;20975;-42
2022/05/02 03:34:52;;;;;;;80.37;59.43;;;;;;;;;;4963507;28;20190;-41
2022/05/02 03:37:18;;;;;;;78.07;57.60;;;;;;;;;;4963670;28;21029;-42
2022/05/02 03:39:44;;;;;;;76.47;57.33;;;;;;;;;;4965477;28;20201;-42
2022/05/02 03:42:10;;;;;;;68.97;53.00;;;;;;;;;;4964304;28;20300;-42
2022/05/02 03:44:36;;;;;;;71.87;55.37;;;;;;;;;;4965851;28;21037;-43
2022/05/02 03:47:02;;;;;;;86.83;63.20;;;;;;;;;;4962197;28;20267;-41
2022/05/02 03:49:28;;;;;;;77.70;56.67;;;;;;;;;;4968232;28;20194;-41
2022/05/02 03:51:54;;;;;;;83.90;60.73;;;;;;;;;;4961611;28;20174;-42
2022/05/02 03:54:20;;;;;;;96.70;69.63;;;;;;;;;;4963804;28;20734;-43
2022/05/02 03:56:47;;;;;;;85.10;61.23;;;;;;;;;;4962970;28;20171;-42
2022/05/02 03:59:13;;;;;;;95.67;65.77;;;;;;;;;;4964870;28;20188;-40
2022/05/02 04:01:40;;;;;;;88.83;59.80;;;;;;;;;;4962570;28;20233;-42
2022/05/02 04:04:06;;;;;;;79.23;55.70;;;;;;;;;;4965585;28;20212;-42
2022/05/02 04:06:32;;;;;;;82.73;58.90;;;;;;;;;;4965973;28;20824;-41
2022/05/02 04:08:59;;;;;;;74.73;55.00;;;;;;;;;;4968713;28;20220;-42
2022/05/02 04:11:25;;;;;;;81.13;58.50;;;;;;;;;;4968099;28;20300;-41
2022/05/02 04:13:51;;;;;;;78.83;56.27;;;;;;;;;;4964901;28;20252;-41
2022/05/02 04:16:17;;;;;;;75.57;55.13;;;;;;;;;;4964274;28;20179;-42
2022/05/02 04:18:45;;;;;;;67.20;50.17;;;;;;;;;;4966867;28;21027;-42
2022/05/02 04:21:11;;;;;;;78.47;56.40;;;;;;;;;;4965898;28;20394;-42
2022/05/02 04:23:37;;;;;;;73.47;54.00;;;;;;;;;;4961700;28;20174;-42
2022/05/02 04:26:04;;;;;;;74.00;54.17;;;;;;;;;;4964565;28;20213;-41
2022/05/02 04:28:30;;;;;;;64.43;48.17;;;;;;;;;;4962220;28;20186;-42
2022/05/02 04:30:57;;;;;;;66.80;49.47;;;;;;;;;;4959761;28;21366;-42
2022/05/02 04:33:23;;;;;;;69.00;50.63;;;;;;;;;;4962094;28;20163;-43
2022/05/02 04:35:50;;;;;;;63.07;48.10;;;;;;;;;;4966038;28;20947;-42
2022/05/02 04:38:16;;;;;;;60.13;45.93;;;;;;;;;;4964215;28;20185;-43
2022/05/02 04:40:42;;;;;;;67.23;48.87;;;;;;;;;;4964535;28;21055;-42
2022/05/02 04:43:09;;;;;;;60.00;45.00;;;;;;;;;;4967378;28;20182;-42
2022/05/02 04:45:35;;;;;;;65.13;48.00;;;;;;;;;;4960376;28;20182;-43
2022/05/02 04:48:01;;;;;;;63.03;46.20;;;;;;;;;;4961728;28;20690;-43
2022/05/02 04:50:27;;;;;;;67.20;48.97;;;;;;;;;;4964724;28;20193;-42
2022/05/02 04:52:53;;;;;;;62.87;47.20;;;;;;;;;;4965213;28;20272;-42
2022/05/02 04:55:20;;;;;;;63.90;47.23;;;;;;;;;;4964736;28;20279;-41
2022/05/02 04:57:46;;;;;;;57.47;43.57;;;;;;;;;;4961845;28;20292;-44
2022/05/02 05:00:14;;;;;;;62.50;46.93;;;;;;;;;;4967583;28;20185;-43
2022/05/02 05:02:40;;;;;;;60.83;44.43;;;;;;;;;;4962385;28;20189;-42
2022/05/02 05:05:07;;;;;;;59.63;44.80;;;;;;;;;;4966306;28;20177;-43
2022/05/02 05:07:36;;;;;;;62.37;46.63;;;;;;;;;;4964156;28;20178;-42
2022/05/02 05:10:02;;;;;;;65.07;48.17;;;;;;;;;;4962939;28;20194;-43
2022/05/02 05:12:34;;;;;;;63.20;46.40;;;;;;;;;;4964484;28;20282;-41
2022/05/02 05:18:19;;;;;;;64.17;44.77;;;;;;;;;;4959241;28;20236;-41
2022/05/02 05:21:02;;;;;;;60.97;45.07;;;;;;;;;;4964317;28;21149;-42
2022/05/02 05:23:29;;;;;;;56.20;40.37;;;;;;;;;;4967092;28;20161;-42
2022/05/02 05:26:11;;;;;;;46.87;36.70;;;;;;;;;;4964991;28;20178;-42
2022/05/02 05:29:16;;;;;;;47.87;37.53;;;;;;;;;;4960510;28;21279;-42
2022/05/02 05:31:42;;;;;;;50.37;36.53;;;;;;;;;;4898239;28;20176;-42
2022/05/02 05:34:08;;;;;;;47.40;35.70;;;;;;;;;;4899836;28;21272;-43
2022/05/02 05:36:43;;;;;;;45.50;34.37;;;;;;;;;;4928768;28;21073;-42
2022/05/02 05:39:20;;;;;;;46.73;32.97;;;;;;;;;;4964125;28;20216;-44
2022/05/02 05:41:46;;;;;;;41.17;33.40;;;;;;;;;;4964372;28;20177;-42
2022/05/02 05:44:22;;;;;;;44.83;32.50;;;;;;;;;;4961954;28;20515;-42
2022/05/02 05:46:55;;;;;;;44.77;33.57;;;;;;;;;;4957085;28;21580;-42
2022/05/02 05:49:21;;;;;;;38.37;30.57;;;;;;;;;;4964083;28;20189;-43
2022/05/02 05:51:48;;;;;;;37.70;29.80;;;;;;;;;;4963744;28;20177;-42
2022/05/02 05:54:14;;;;;;;36.40;29.87;;;;;;;;;;4965646;28;20182;-43
2022/05/02 05:56:48;;;;;;;36.70;30.27;;;;;;;;;;4962779;28;20158;-43
2022/05/02 05:59:22;;;;;;;37.17;30.37;;;;;;;;;;4965651;28;20300;-43
2022/05/02 06:01:48;;;;;;;33.87;28.37;;;;;;;;;;4968851;28;20189;-43
2022/05/02 06:04:15;;;;;;;38.20;29.60;;;;;;;;;;4962175;28;20178;-44
2022/05/02 06:06:41;;;;;;;34.63;29.87;;;;;;;;;;4965875;28;20594;-44
2022/05/02 06:09:07;;;;;;;33.93;29.47;;;;;;;;;;4966003;28;20200;-44
2022/05/02 06:11:33;;;;;;;35.93;30.43;;;;;;;;;;4966872;28;20180;-44
2022/05/02 06:14:02;;;;;;;37.40;30.13;;;;;;;;;;4964075;28;20766;-43
2022/05/02 06:19:25;;;;;;;38.03;30.03;;;;;;;;;;4963477;28;20187;-42
2022/05/02 06:21:51;;;;;;;36.57;30.27;;;;;;;;;;4961349;28;20173;-46
2022/05/02 06:24:17;;;;;;;37.57;31.13;;;;;;;;;;4962736;28;20200;-43
2022/05/02 06:26:44;;;;;;;37.57;30.70;;;;;;;;;;4963046;28;20180;-43
2022/05/02 06:29:10;;;;;;;37.60;32.13;;;;;;;;;;4962620;28;20197;-44
2022/05/02 06:31:39;;;;;;;39.30;31.33;;;;;;;;;;4961297;28;21234;-43
2022/05/02 06:34:06;;;;;;;37.27;29.67;;;;;;;;;;4960016;28;20945;-44
2022/05/02 06:36:35;;;;;;;36.27;30.40;;;;;;;;;;4963129;28;20205;-45
2022/05/02 06:39:11;;;;;;;42.13;31.80;;;;;;;;;;4963912;28;21122;-45
2022/05/02 06:41:52;;;;;;;47.70;36.47;;;;;;;;;;4963190;28;20262;-45
2022/05/02 06:44:37;;;;;;;47.43;34.73;;;;;;;;;;4963543;28;20183;-46
2022/05/02 06:47:21;;;;;;;38.97;33.63;;;;;;;;;;4962907;28;20263;-45
2022/05/02 06:49:49;;;;;;;41.27;33.53;;;;;;;;;;4962042;28;20987;-46
2022/05/02 06:52:20;;;;;;;46.97;35.23;;;;;;;;;;4962041;28;20185;-45
2022/05/02 06:54:56;;;;;;;41.07;32.60;;;;;;;;;;4965732;28;20280;-45
2022/05/02 06:57:34;;;;;;;39.70;30.13;;;;;;;;;;4962771;28;20172;-44
2022/05/02 07:00:07;;;;;;;36.20;31.37;;;;;;;;;;4965640;28;20177;-45
2022/05/02 07:02:49;;;;;;;33.37;28.03;;;;;;;;;;4964468;28;20267;-45
2022/05/02 07:05:18;;;;;;;31.20;26.17;;;;;;;;;;4963580;28;20228;-45
2022/05/02 07:07:48;;;;;;;29.43;26.20;;;;;;;;;;4961738;28;20339;-45
2022/05/02 07:10:18;;;;;;;33.67;26.40;;;;;;;;;;4962410;28;21125;-46
2022/05/02 07:12:56;;;;;;;28.43;24.37;;;;;;;;;;4966268;28;20814;-45
2022/05/02 07:15:27;;;;;;;25.93;22.07;;;;;;;;;;4968343;28;20185;-45
2022/05/02 07:17:53;;;;;;;25.80;22.43;;;;;;;;;;4969011;28;20189;-45
2022/05/02 07:20:23;;;;;;;26.87;22.93;;;;;;;;;;4965962;28;20210;-45
2022/05/02 07:22:56;;;;;;;27.43;23.20;;;;;;;;;;4965007;28;21018;-45
2022/05/02 07:25:23;;;;;;;28.93;23.33;;;;;;;;;;4967583;28;20260;-46
2022/05/02 07:27:52;;;;;;;27.07;23.50;;;;;;;;;;4962375;28;20260;-46
2022/05/02 07:30:20;;;;;;;29.73;25.87;;;;;;;;;;4959957;28;20438;-46
2022/05/02 07:32:47;;;;;;;28.50;24.90;;;;;;;;;;4963877;28;20944;-46
2022/05/02 07:35:14;;;;;;;28.00;24.40;;;;;;;;;;4966806;28;20277;-46
2022/05/02 07:37:42;;;;;;;34.37;25.90;;;;;;;;;;4965790;28;20205;-46
2022/05/02 07:40:11;;;;;;;27.20;23.03;;;;;;;;;;4963718;28;20981;-46
2022/05/02 07:42:37;;;;;;;28.13;21.30;;;;;;;;;;4963327;28;20240;-46
2022/05/02 07:45:07;;;;;;;24.37;20.63;;;;;;;;;;4963583;28;20170;-46
2022/05/02 07:47:34;;;;;;;21.73;16.90;;;;;;;;;;4964782;28;20171;-45
2022/05/02 07:50:00;;;;;;;19.73;14.67;;;;;;;;;;4963525;28;20225;-46
2022/05/02 07:52:27;;;;;;;16.30;13.93;;;;;;;;;;4966190;28;20165;-46
2022/05/02 07:54:55;;;;;;;20.83;16.23;;;;;;;;;;4964220;28;20165;-46
2022/05/02 07:57:23;;;;;;;20.43;14.67;;;;;;;;;;4962188;28;20168;-46
2022/05/02 07:59:53;;;;;;;16.93;14.87;;;;;;;;;;4967799;28;20284;-46
2022/05/02 08:02:20;;;;;;;18.20;16.03;;;;;;;;;;4968075;28;20174;-46
2022/05/02 08:04:47;;;;;;;19.50;17.37;;;;;;;;;;4967886;28;20195;-46
2022/05/02 08:07:13;;;;;;;23.23;17.40;;;;;;;;;;4967162;28;20170;-45
2022/05/02 08:09:42;;;;;;;20.70;15.23;;;;;;;;;;4966113;28;20197;-46
2022/05/02 08:12:15;;;;;;;18.50;16.17;;;;;;;;;;4968398;28;20180;-46
2022/05/02 08:15:00;;;;;;;17.33;15.53;;;;;;;;;;4965117;28;20174;-46
2022/05/02 08:17:26;;;;;;;18.50;15.37;;;;;;;;;;4965902;28;20281;-46
2022/05/02 08:20:18;;;;;;;20.17;15.50;;;;;;;;;;4966902;28;20181;-46
2022/05/02 08:28:24;;;;;;;19.27;16.23;;;;;;;;;;4966972;28;20207;-46
2022/05/02 08:30:58;;;;;;;18.60;15.43;;;;;;;;;;4968861;28;20938;-46
2022/05/02 08:33:30;;;;;;;15.57;13.70;;;;;;;;;;4965287;28;21091;-46
2022/05/02 08:35:58;;;;;;;15.43;13.30;;;;;;;;;;4965645;28;20173;-46
2022/05/02 08:38:43;;;;;;;18.13;13.10;;;;;;;;;;4967342;28;20208;-46
2022/05/02 08:41:09;;;;;;;13.90;12.40;;;;;;;;;;4968118;28;20185;-46
2022/05/02 08:43:54;;;;;;;14.93;12.93;;;;;;;;;;4967521;28;20166;-46
2022/05/02 08:46:47;;;;;;;14.03;12.57;;;;;;;;;;4964415;28;20184;-46
2022/05/02 08:49:36;;;;;;;15.50;13.13;;;;;;;;;;4965426;28;21005;-46
2022/05/02 08:52:08;;;;;;;13.70;11.80;;;;;;;;;;4961939;28;20227;-46
2022/05/02 08:54:53;;;;;;;13.03;10.77;;;;;;;;;;4965953;28;20247;-46
2022/05/02 08:57:22;;;;;;;12.30;10.50;;;;;;;;;;4967177;28;20173;-46
2022/05/02 09:00:07;;;;;;;13.07;10.40;;;;;;;;;;4967074;28;20170;-46
2022/05/02 09:02:37;;;;;;;10.80;9.70;;;;;;;;;;4964655;28;21067;-45
2022/05/02 09:05:09;;;;;;;11.53;9.87;;;;;;;;;;4967134;28;20256;-46
2022/05/02 09:07:54;;;;;;;9.90;8.60;;;;;;;;;;4965115;28;20170;-46
2022/05/02 09:10:34;;;;;;;8.07;7.27;;;;;;;;;;4961974;28;20189;-46
2022/05/02 09:13:16;;;;;;;8.10;6.53;;;;;;;;;;4964437;28;20171;-46
2022/05/02 09:16:01;;;;;;;7.47;6.50;;;;;;;;;;4967507;28;20165;-46
2022/05/02 09:18:30;;;;;;;8.87;7.97;;;;;;;;;;4962923;28;20320;-46
2022/05/02 09:21:00;;;;;;;8.90;8.00;;;;;;;;;;4963933;28;20281;-46
2022/05/02 09:23:35;;;;;;;9.27;8.00;;;;;;;;;;4965088;28;20193;-46
2022/05/02 09:26:15;;;;;;;8.80;7.03;;;;;;;;;;4966427;28;20178;-46
2022/05/02 09:29:00;;;;;;;10.93;8.13;;;;;;;;;;4963237;28;20168;-46
2022/05/02 09:31:44;;;;;;;5.80;5.17;;;;;;;;;;4963183;28;20231;-47
2022/05/02 09:34:17;;;;;;;4.40;4.00;;;;;;;;;;4967053;28;21021;-46
2022/05/02 09:36:44;;;;;;;4.17;3.77;;;;;;;;;;4963540;28;20200;-46
2022/05/02 09:39:24;;;;;;;5.27;3.50;;;;;;;;;;4961438;28;20856;-46
2022/05/02 09:41:56;;;;;;;4.47;3.20;;;;;;;;;;4965223;28;20256;-46
2022/05/02 09:50:29;;;;;;;3.97;3.50;;;;;;;;;;4962162;28;20284;-46
2022/05/02 09:52:55;;;;;;;5.43;3.47;;;;;;;;;;4964329;28;20212;-46
2022/05/02 09:58:36;;;;;;;4.27;3.67;;;;;;;;;;4955614;28;20192;-47
2022/05/02 10:01:21;;;;;;;5.73;3.23;;;;;;;;;;4966959;28;20178;-46
2022/05/02 10:03:59;;;;;;;4.33;3.63;;;;;;;;;;4964672;28;20189;-46
2022/05/02 10:06:36;;;;;;;8.47;4.30;;;;;;;;;;4962150;28;20174;-47
2022/05/02 10:09:10;;;;;;;5.33;4.03;;;;;;;;;;4963826;28;21018;-46
2022/05/02 10:11:55;;;;;;;5.73;3.87;;;;;;;;;;4964346;28;20808;-46
2022/05/02 10:14:44;;;;;;;5.53;3.90;;;;;;;;;;4966211;28;20166;-46
2022/05/02 10:17:13;;;;;;;5.37;3.87;;;;;;;;;;4945722;28;20924;-46
2022/05/02 10:19:58;;;;;;;5.97;3.43;;;;;;;;;;4966865;28;20636;-46
2022/05/02 10:22:24;;;;;;;4.00;3.60;;;;;;;;;;4964188;28;20185;-46
2022/05/02 10:24:53;;;;;;;4.60;3.43;;;;;;;;;;4963292;28;20186;-46
2022/05/02 10:27:27;;;;;;;4.33;3.63;;;;;;;;;;4962536;28;20768;-46
2022/05/02 10:30:07;;;;;;;3.73;3.40;;;;;;;;;;4965004;28;20193;-46
2022/05/02 10:32:59;;;;;;;4.60;4.20;;;;;;;;;;4966720;28;20232;-46
2022/05/02 10:35:26;;;;;;;5.47;4.17;;;;;;;;;;4963131;28;20162;-46
2022/05/02 10:37:56;;;;;;;4.37;3.53;;;;;;;;;;4961521;28;20181;-46
2022/05/02 10:40:41;;;;;;;5.03;3.90;;;;;;;;;;4962776;28;20615;-46
2022/05/02 10:43:08;;;;;;;5.30;4.20;;;;;;;;;;4962897;28;21058;-46
2022/05/02 10:45:36;;;;;;;5.47;4.97;;;;;;;;;;4963640;28;20929;-46
2022/05/02 10:48:11;;;;;;;5.53;4.80;;;;;;;;;;4962025;28;20185;-46
2022/05/02 10:50:38;;;;;;;5.17;3.97;;;;;;;;;;4965012;28;20208;-46
2022/05/02 10:53:08;;;;;;;4.67;4.27;;;;;;;;;;4961903;28;20252;-46
2022/05/02 10:55:39;;;;;;;6.27;5.43;;;;;;;;;;4963132;28;20940;-45
2022/05/02 10:58:09;;;;;;;5.33;4.70;;;;;;;;;;4961278;28;20181;-46
2022/05/02 11:00:41;;;;;;;6.13;5.53;;;;;;;;;;4964657;28;20162;-45
2022/05/02 11:03:14;;;;;;;6.23;5.07;;;;;;;;;;4964068;28;20364;-44
2022/05/02 11:06:01;;;;;;;5.23;4.40;;;;;;;;;;4963904;28;20178;-45
2022/05/02 11:08:31;;;;;;;6.77;4.13;;;;;;;;;;4966867;28;20177;-46
2022/05/02 11:11:04;;;;;;;4.43;4.00;;;;;;;;;;4963066;28;20201;-46
2022/05/02 11:13:48;;;;;;;5.00;4.50;;;;;;;;;;4962841;28;20989;-46
2022/05/02 11:16:27;;;;;;;5.10;4.60;;;;;;;;;;4963382;28;20181;-45
2022/05/02 11:22:08;;;;;;;4.97;4.40;;;;;;;;;;4926965;28;20241;-45
2022/05/02 11:24:34;;;;;;;4.70;4.30;;;;;;;;;;4964099;28;20243;-46
2022/05/02 11:27:05;;;;;;;5.07;4.57;;;;;;;;;;4961861;28;20169;-45
2022/05/02 11:29:34;;;;;;;5.27;4.37;;;;;;;;;;4962049;28;20197;-45
2022/05/02 11:32:04;;;;;;;4.87;4.33;;;;;;;;;;4964440;28;20173;-46
2022/05/02 11:34:33;;;;;;;4.97;4.40;;;;;;;;;;4966441;28;20169;-46
2022/05/02 11:37:00;;;;;;;4.57;4.17;;;;;;;;;;4968762;28;20200;-45
2022/05/02 11:39:29;;;;;;;4.50;4.10;;;;;;;;;;4964504;28;20301;-45
2022/05/02 11:41:57;;;;;;;5.00;4.47;;;;;;;;;;4962189;28;20200;-45
2022/05/02 11:44:26;;;;;;;5.50;5.00;;;;;;;;;;4967411;28;20255;-45
2022/05/02 11:47:05;;;;;;;7.63;5.37;;;;;;;;;;4963478;28;20184;-45
2022/05/02 11:49:42;;;;;;;5.03;4.30;;;;;;;;;;4966521;28;20796;-45
2022/05/02 11:52:13;;;;;;;5.33;4.33;;;;;;;;;;4967168;28;20169;-45
2022/05/02 11:54:40;;;;;;;5.33;4.83;;;;;;;;;;4968536;28;20170;-45
2022/05/02 11:57:06;;;;;;;5.07;4.57;;;;;;;;;;4966028;28;20870;-45
2022/05/02 11:59:52;;;;;;;8.00;4.20;;;;;;;;;;4967049;28;21925;-45
2022/05/02 12:02:32;;;;;;;5.97;4.00;;;;;;;;;;4954953;28;20297;-45
2022/05/02 12:05:02;;;;;;;4.50;4.10;;;;;;;;;;4964429;28;20165;-45
2022/05/02 12:07:34;;;;;;;6.20;4.67;;;;;;;;;;4948999;28;20189;-45
2022/05/02 12:10:07;;;;;;;5.93;4.90;;;;;;;;;;4965152;28;20199;-45
2022/05/02 12:12:33;;;;;;;6.30;4.87;;;;;;;;;;4964267;28;20172;-44
2022/05/02 12:15:00;;;;;;;5.00;4.50;;;;;;;;;;4968533;28;20232;-45
2022/05/02 12:17:26;;;;;;;5.43;4.90;;;;;;;;;;4965287;28;21043;-45
2022/05/02 12:19:52;;;;;;;6.20;5.00;;;;;;;;;;4962889;28;20167;-45
2022/05/02 12:22:22;;;;;;;6.10;5.50;;;;;;;;;;4965913;28;21029;-45
2022/05/02 12:24:49;;;;;;;5.50;5.00;;;;;;;;;;4964047;28;21035;-45
2022/05/02 12:27:17;;;;;;;5.57;5.00;;;;;;;;;;4962600;28;21080;-45
2022/05/02 12:29:43;;;;;;;6.70;5.80;;;;;;;;;;4965556;28;20299;-45
2022/05/02 12:32:14;;;;;;;6.50;5.90;;;;;;;;;;4967399;28;20185;-45
2022/05/02 12:34:49;;;;;;;8.57;6.20;;;;;;;;;;4966906;28;20235;-45
2022/05/02 12:37:30;;;;;;;6.90;6.20;;;;;;;;;;4964906;28;20192;-45
2022/05/02 12:40:09;;;;;;;7.67;6.87;;;;;;;;;;4963884;28;20181;-45
2022/05/02 12:42:44;;;;;;;8.97;7.70;;;;;;;;;;4963376;28;20181;-44
2022/05/02 12:45:13;;;;;;;8.43;7.43;;;;;;;;;;4963613;28;20197;-44
2022/05/02 12:47:46;;;;;;;8.43;6.43;;;;;;;;;;4966224;28;20181;-45
2022/05/02 12:50:13;;;;;;;8.33;7.20;;;;;;;;;;4967309;28;21048;-45
2022/05/02 12:52:44;;;;;;;7.70;7.00;;;;;;;;;;4963567;28;20213;-45
2022/05/02 12:55:11;;;;;;;9.33;7.30;;;;;;;;;;4966205;28;20158;-44
2022/05/02 13:00:32;;;;;;;9.10;8.20;;;;;;;;;;4965382;28;20332;-45
2022/05/02 13:03:24;;;;;;;8.90;7.93;;;;;;;;;;4965954;28;20251;-45
2022/05/02 13:05:58;;;;;;;8.63;7.73;;;;;;;;;;4967300;28;20185;-45
2022/05/02 13:08:38;;;;;;;7.47;6.57;;;;;;;;;;4963287;28;20192;-45
2022/05/02 13:11:06;;;;;;;6.90;6.20;;;;;;;;;;4966949;28;20387;-45
2022/05/02 13:13:47;;;;;;;6.40;5.80;;;;;;;;;;4966246;28;20162;-45
2022/05/02 13:16:30;;;;;;;8.83;6.80;;;;;;;;;;4967960;28;20174;-44
2022/05/02 13:19:00;;;;;;;8.33;6.30;;;;;;;;;;4962699;28;20161;-45
2022/05/02 13:21:26;;;;;;;9.73;6.00;;;;;;;;;;4964388;28;20166;-45
2022/05/02 13:23:57;;;;;;;7.67;6.30;;;;;;;;;;4967094;28;20166;-45
2022/05/02 13:26:29;;;;;;;5.60;5.10;;;;;;;;;;4967888;28;20255;-46
2022/05/02 13:29:09;;;;;;;7.30;6.20;;;;;;;;;;4963286;28;20175;-45
2022/05/02 13:31:45;;;;;;;6.90;6.20;;;;;;;;;;4962356;28;20214;-46
2022/05/02 13:34:20;;;;;;;5.83;5.07;;;;;;;;;;4964723;28;20166;-45
2022/05/02 13:36:48;;;;;;;6.07;4.63;;;;;;;;;;4962750;28;20181;-46
2022/05/02 13:39:16;;;;;;;6.47;5.23;;;;;;;;;;4964649;28;20184;-45
2022/05/02 13:42:02;;;;;;;5.70;5.00;;;;;;;;;;4965596;28;20182;-45
2022/05/02 13:44:43;;;;;;;7.43;5.63;;;;;;;;;;4960304;28;20190;-45
2022/05/02 13:47:14;;;;;;;5.43;4.93;;;;;;;;;;4957630;28;20404;-45
2022/05/02 13:50:01;;;;;;;4.97;4.57;;;;;;;;;;4964129;28;20193;-45
2022/05/02 13:52:46;;;;;;;5.00;4.50;;;;;;;;;;4964106;28;20284;-45
2022/05/02 13:55:16;;;;;;;4.97;4.47;;;;;;;;;;4964721;28;20170;-45
2022/05/02 13:58:01;;;;;;;5.47;4.90;;;;;;;;;;4963402;28;20158;-45
2022/05/02 14:01:09;;;;;;;5.10;4.60;;;;;;;;;;4965597;28;20647;-45
2022/05/02 14:03:43;;;;;;;5.60;5.10;;;;;;;;;;4965471;28;21010;-45
2022/05/02 14:06:13;;;;;;;5.60;4.63;;;;;;;;;;4963307;28;20280;-45
2022/05/02 14:08:42;;;;;;;4.97;4.47;;;;;;;;;;4968362;28;20212;-45
2022/05/02 14:11:13;;;;;;;4.73;4.20;;;;;;;;;;4963699;28;21036;-45
2022/05/02 14:13:40;;;;;;;4.90;4.40;;;;;;;;;;4965535;28;20170;-45
2022/05/02 14:16:07;;;;;;;6.03;4.43;;;;;;;;;;4965972;28;20235;-45
2022/05/02 14:18:50;;;;;;;5.73;4.60;;;;;;;;;;4965236;28;20256;-45
2022/05/02 14:21:18;;;;;;;5.30;4.50;;;;;;;;;;4964376;28;20276;-45
2022/05/02 14:23:45;;;;;;;5.10;4.33;;;;;;;;;;4963343;28;21062;-45
2022/05/02 14:26:12;;;;;;;4.70;4.20;;;;;;;;;;4965428;28;20231;-45
2022/05/02 14:28:44;;;;;;;4.10;3.63;;;;;;;;;;4962643;28;20279;-45
2022/05/02 14:31:11;;;;;;;4.60;4.20;;;;;;;;;;4966315;28;20195;-45
2022/05/02 14:33:38;;;;;;;5.33;4.07;;;;;;;;;;4965173;28;20283;-45
2022/05/02 14:36:05;;;;;;;11.40;4.90;;;;;;;;;;4963241;28;20296;-46
2022/05/02 14:38:32;;;;;;;6.17;3.83;;;;;;;;;;4964933;28;20275;-45
2022/05/02 14:40:59;;;;;;;10.93;4.93;;;;;;;;;;4964436;28;20717;-45
2022/05/02 14:43:25;;;;;;;5.80;3.93;;;;;;;;;;4962162;28;20253;-45
2022/05/02 14:45:52;;;;;;;4.63;3.40;;;;;;;;;;4963599;28;20181;-45
2022/05/02 14:48:19;;;;;;;4.80;3.50;;;;;;;;;;4962988;28;20185;-45
2022/05/02 14:50:46;;;;;;;4.60;3.80;;;;;;;;;;4964930;28;20264;-45
2022/05/02 14:53:13;;;;;;;3.73;3.40;;;;;;;;;;4962370;28;20174;-45
2022/05/02 14:55:43;;;;;;;3.47;3.17;;;;;;;;;;4966336;28;20784;-46
2022/05/02 14:58:12;;;;;;;4.97;3.70;;;;;;;;;;4962110;28;20673;-45
2022/05/02 15:01:04;;;;;;;4.03;3.60;;;;;;;;;;4961729;28;20212;-45
2022/05/02 15:03:31;;;;;;;4.17;3.50;;;;;;;;;;4957422;28;20277;-46
2022/05/02 15:06:01;;;;;;;3.87;3.40;;;;;;;;;;4966694;28;21046;-45
2022/05/02 15:08:42;;;;;;;3.47;3.17;;;;;;;;;;4961439;28;21147;-45
2022/05/02 15:11:16;;;;;;;3.37;3.07;;;;;;;;;;4969821;28;20201;-45
2022/05/02 15:13:48;;;;;;;4.30;3.37;;;;;;;;;;4969997;28;20287;-45
2022/05/02 15:16:23;;;;;;;6.43;3.43;;;;;;;;;;4971250;28;20181;-45